Time;durP1;ratioP1;P1;durP2;ratioP2;P2;SDS_P1;SDS_P2;PMS_P1;PMS_P2;Temp;Humidity;BMP_temperature;BMP_pressure;BME280_temperature;BME280_humidity;BME280_pressure;Samples;Min_cycle;Max_cycle;Signal;HPM_P1;HPM_P2
2023/03/25 00:01:14;;;;;;;3.60;1.35;;;12.30;70.60;;;;;;5093011;28;20419;-63
2023/03/25 00:03:41;;;;;;;5.97;1.83;;;12.30;70.60;;;;;;5093334;28;20118;-63
2023/03/25 00:06:09;;;;;;;5.03;1.50;;;12.30;70.60;;;;;;5092275;28;20449;-63
2023/03/25 00:08:35;;;;;;;4.65;1.55;;;12.30;70.60;;;;;;5093046;28;20050;-63
2023/03/25 00:11:03;;;;;;;5.55;1.67;;;12.30;70.70;;;;;;5092726;28;20056;-63
2023/03/25 00:13:33;;;;;;;7.95;1.90;;;12.30;70.70;;;;;;5096603;28;20031;-63
2023/03/25 00:15:59;;;;;;;3.85;1.30;;;12.30;70.70;;;;;;5088453;28;20051;-63
2023/03/25 00:18:28;;;;;;;6.10;1.73;;;12.20;70.70;;;;;;5092009;28;20036;-63
2023/03/25 00:20:55;;;;;;;6.22;2.05;;;12.30;70.80;;;;;;5093628;28;20089;-63
2023/03/25 00:23:21;;;;;;;3.47;1.30;;;12.30;70.80;;;;;;5092535;28;20032;-63
2023/03/25 00:25:48;;;;;;;6.75;1.80;;;12.30;70.80;;;;;;5093950;28;20035;-63
2023/03/25 00:28:15;;;;;;;4.88;1.60;;;12.30;70.90;;;;;;5096086;28;20065;-63
2023/03/25 00:30:42;;;;;;;6.47;1.77;;;12.30;70.90;;;;;;5084248;28;20047;-63
2023/03/25 00:33:15;;;;;;;6.72;1.75;;;12.20;71.00;;;;;;5106904;28;20023;-63
2023/03/25 00:35:44;;;;;;;7.75;1.90;;;12.20;71.10;;;;;;5092411;28;20137;-63
2023/03/25 00:38:10;;;;;;;5.60;1.45;;;12.20;71.10;;;;;;5099942;28;20051;-63
2023/03/25 00:40:36;;;;;;;4.72;1.55;;;12.20;71.10;;;;;;5083482;28;20141;-63
2023/03/25 00:43:05;;;;;;;6.00;2.20;;;12.20;71.10;;;;;;5095019;28;20020;-63
2023/03/25 00:45:32;;;;;;;4.47;1.63;;;12.20;71.10;;;;;;5094121;28;20027;-63
2023/03/25 00:47:58;;;;;;;7.57;1.90;;;12.20;71.00;;;;;;5093360;28;20024;-63
2023/03/25 00:50:25;;;;;;;7.60;2.42;;;12.20;71.00;;;;;;5099088;28;20024;-63
2023/03/25 00:52:52;;;;;;;7.72;1.83;;;12.20;71.00;;;;;;5096337;28;20046;-63
2023/03/25 00:55:18;;;;;;;6.28;1.92;;;12.20;71.10;;;;;;5096006;28;20036;-63
2023/03/25 00:57:44;;;;;;;4.85;1.55;;;12.20;71.10;;;;;;5096622;28;20543;-63
2023/03/25 01:00:14;;;;;;;5.05;1.42;;;12.20;71.10;;;;;;5097331;28;20024;-63
2023/03/25 01:02:40;;;;;;;7.65;1.77;;;12.20;71.10;;;;;;5101899;28;20036;-63
2023/03/25 01:05:10;;;;;;;6.15;1.90;;;12.20;71.00;;;;;;5096886;28;20017;-63
2023/03/25 01:07:38;;;;;;;6.18;1.90;;;12.20;71.00;;;;;;5097668;28;20589;-63
2023/03/25 01:10:06;;;;;;;7.57;1.90;;;12.20;71.00;;;;;;5096810;28;20028;-63
2023/03/25 01:12:32;;;;;;;6.75;1.77;;;12.20;70.90;;;;;;5095164;28;20024;-63
2023/03/25 01:14:58;;;;;;;7.57;2.25;;;12.10;70.90;;;;;;5096889;28;20372;-63
2023/03/25 01:17:23;;;;;;;4.18;1.67;;;12.10;70.90;;;;;;5081896;28;20067;-62
2023/03/25 01:19:50;;;;;;;6.90;1.77;;;12.10;70.90;;;;;;5100812;28;20038;-63
2023/03/25 01:22:16;;;;;;;9.23;2.17;;;12.10;70.90;;;;;;5087579;28;20032;-63
2023/03/25 01:24:42;;;;;;;5.50;1.75;;;12.10;70.80;;;;;;5101595;28;20061;-63
2023/03/25 01:27:08;;;;;;;5.60;1.45;;;12.10;70.70;;;;;;5095446;28;20040;-63
2023/03/25 01:29:34;;;;;;;9.70;2.10;;;12.10;70.70;;;;;;5093519;28;20048;-63
2023/03/25 01:31:59;;;;;;;6.30;2.10;;;12.10;70.60;;;;;;5096737;28;20055;-63
2023/03/25 01:34:25;;;;;;;8.05;1.75;;;12.10;70.70;;;;;;5097789;28;20032;-63
2023/03/25 01:36:54;;;;;;;7.13;2.05;;;12.10;70.70;;;;;;5094057;28;20036;-63
2023/03/25 01:39:20;;;;;;;6.72;1.98;;;12.10;70.60;;;;;;5098241;28;20128;-63
2023/03/25 01:41:48;;;;;;;6.53;1.73;;;12.10;70.50;;;;;;5079558;28;20033;-63
2023/03/25 01:44:17;;;;;;;6.03;1.63;;;12.10;70.50;;;;;;5086296;28;20448;-63
2023/03/25 01:46:43;;;;;;;9.13;1.98;;;12.10;70.50;;;;;;5094552;28;20066;-63
2023/03/25 01:49:17;;;;;;;8.45;1.80;;;12.00;70.40;;;;;;5103829;28;20072;-63
2023/03/25 01:51:45;;;;;;;7.05;2.08;;;12.10;70.40;;;;;;5078796;28;20020;-63
2023/03/25 01:54:16;;;;;;;6.38;2.35;;;12.10;70.30;;;;;;5095248;28;20027;-63
2023/03/25 01:56:46;;;;;;;6.28;1.65;;;12.00;70.20;;;;;;5090123;28;20361;-63
2023/03/25 01:59:14;;;;;;;9.73;1.92;;;12.00;70.20;;;;;;5090198;28;20475;-63
2023/03/25 02:01:44;;;;;;;9.15;1.90;;;12.10;70.30;;;;;;5096450;28;20027;-63
2023/03/25 02:04:12;;;;;;;7.60;1.42;;;12.00;70.20;;;;;;5100803;28;20039;-63
2023/03/25 02:06:45;;;;;;;7.88;1.30;;;12.00;70.20;;;;;;5076765;28;20107;-63
2023/03/25 02:09:13;;;;;;;6.70;2.03;;;12.00;70.20;;;;;;5100919;28;20471;-63
2023/03/25 02:11:39;;;;;;;7.07;1.67;;;12.00;70.20;;;;;;5097910;28;20025;-63
2023/03/25 02:14:15;;;;;;;4.50;1.65;;;12.00;70.40;;;;;;5089721;28;20040;-62
2023/03/25 02:17:11;;;;;;;8.30;1.38;;;12.00;70.60;;;;;;5089761;28;20033;-63
2023/03/25 02:19:55;;;;;;;5.72;1.60;;;12.00;70.70;;;;;;5100040;27;20032;-63
2023/03/25 02:22:40;;;;;;;6.97;1.95;;;12.00;70.80;;;;;;5099808;28;20020;-63
2023/03/25 02:25:34;;;;;;;6.72;2.03;;;12.00;70.90;;;;;;5096400;28;20070;-63
2023/03/25 02:28:46;;;;;;;5.45;1.73;;;12.00;71.20;;;;;;5089434;28;20093;-62
2023/03/25 02:31:54;;;;;;;4.60;1.70;;;11.90;71.40;;;;;;5080179;28;20036;-62
2023/03/25 02:35:08;;;;;;;5.78;1.63;;;11.90;71.60;;;;;;5097420;28;20032;-62
2023/03/25 02:37:59;;;;;;;7.47;1.85;;;11.80;71.70;;;;;;5092301;28;20113;-62
2023/03/25 02:40:51;;;;;;;8.65;2.20;;;11.80;71.90;;;;;;5097100;28;20039;-62
2023/03/25 02:43:31;;;;;;;7.25;1.88;;;11.70;72.10;;;;;;5102233;28;20119;-63
2023/03/25 02:46:01;;;;;;;6.65;2.25;;;11.70;72.30;;;;;;5094688;28;20089;-63
2023/03/25 02:48:36;;;;;;;7.50;2.05;;;11.80;72.50;;;;;;5087324;28;20025;-62
2023/03/25 02:51:11;;;;;;;6.47;2.03;;;11.70;72.70;;;;;;5078324;28;20048;-63
2023/03/25 02:53:39;;;;;;;7.57;2.33;;;11.70;72.90;;;;;;5081222;28;20491;-63
2023/03/25 02:56:13;;;;;;;5.22;2.22;;;11.60;73.00;;;;;;5093458;28;20516;-62
2023/03/25 02:58:40;;;;;;;6.65;2.03;;;11.60;73.20;;;;;;5100805;28;20026;-62
2023/03/25 03:01:08;;;;;;;8.30;2.08;;;11.60;73.30;;;;;;5094113;28;20028;-62
2023/03/25 03:03:35;;;;;;;8.77;2.50;;;11.70;73.30;;;;;;5096912;28;20024;-62
2023/03/25 03:06:04;;;;;;;6.40;2.47;;;11.60;73.30;;;;;;5084391;28;20414;-62
2023/03/25 03:08:49;;;;;;;5.28;2.20;;;11.60;73.30;;;;;;5109331;28;20039;-62
2023/03/25 03:11:56;;;;;;;5.40;1.75;;;11.60;73.30;;;;;;5096044;28;20035;-62
2023/03/25 03:15:03;;;;;;;7.03;1.83;;;11.50;73.40;;;;;;5085922;28;20455;-62
2023/03/25 03:17:37;;;;;;;5.28;2.10;;;11.50;73.50;;;;;;5083052;28;20127;-62
2023/03/25 03:20:42;;;;;;;5.65;1.85;;;11.50;73.60;;;;;;5098179;28;20089;-63
2023/03/25 03:23:23;;;;;;;5.25;1.85;;;11.50;73.70;;;;;;5088680;28;20134;-62
2023/03/25 03:26:12;;;;;;;5.43;1.70;;;11.50;73.80;;;;;;5096743;28;20031;-62
2023/03/25 03:28:56;;;;;;;6.35;2.00;;;11.50;73.90;;;;;;5107502;28;20112;-62
2023/03/25 03:31:32;;;;;;;5.47;2.00;;;11.50;73.90;;;;;;5093158;28;20040;-62
2023/03/25 03:34:09;;;;;;;5.95;1.90;;;11.50;74.70;;;;;;5090606;28;20024;-62
2023/03/25 03:36:43;;;;;;;7.70;2.30;;;11.40;74.10;;;;;;5100575;28;20032;-62
2023/03/25 03:39:27;;;;;;;5.88;1.95;;;11.40;74.10;;;;;;5093153;28;20028;-62
2023/03/25 03:42:02;;;;;;;7.55;2.30;;;11.40;74.20;;;;;;5093413;28;20027;-62
2023/03/25 03:44:37;;;;;;;7.07;2.40;;;11.40;74.30;;;;;;5094268;28;20389;-62
2023/03/25 03:47:12;;;;;;;7.90;2.08;;;11.40;74.40;;;;;;5099897;28;20115;-62
2023/03/25 03:49:43;;;;;;;7.28;2.28;;;11.40;74.60;;;;;;5081403;28;20032;-62
2023/03/25 03:52:24;;;;;;;8.00;2.10;;;11.40;74.60;;;;;;5090536;28;20055;-62
2023/03/25 03:54:52;;;;;;;7.53;2.42;;;11.40;74.70;;;;;;5095104;28;20110;-62
2023/03/25 03:57:30;;;;;;;6.60;2.20;;;11.40;74.80;;;;;;5092056;28;20111;-62
2023/03/25 04:00:05;;;;;;;8.00;2.45;;;11.40;74.90;;;;;;5090446;28;20394;-62
2023/03/25 04:02:46;;;;;;;5.18;2.00;;;11.40;75.00;;;;;;5084553;28;20032;-63
2023/03/25 04:05:15;;;;;;;6.15;2.22;;;11.40;75.00;;;;;;5094877;28;20105;-62
2023/03/25 04:07:53;;;;;;;6.60;2.03;;;11.40;75.10;;;;;;5095014;28;20445;-62
2023/03/25 04:10:51;;;;;;;8.23;2.45;;;11.40;75.10;;;;;;5103895;28;20024;-62
2023/03/25 04:13:20;;;;;;;9.10;2.47;;;11.40;75.00;;;;;;5097067;28;20040;-63
2023/03/25 04:15:47;;;;;;;7.97;2.08;;;11.40;75.00;;;;;;5095906;28;20045;-62
2023/03/25 04:18:12;;;;;;;8.35;2.08;;;11.40;75.00;;;;;;5095706;28;20031;-62
2023/03/25 04:20:43;;;;;;;8.10;2.65;;;11.40;75.00;;;;;;5082511;28;20353;-62
2023/03/25 04:23:14;;;;;;;5.80;2.03;;;11.30;75.20;;;;;;5100546;28;20036;-62
2023/03/25 04:25:42;;;;;;;4.47;1.95;;;11.40;75.00;;;;;;5095589;28;20349;-62
2023/03/25 04:28:12;;;;;;;11.13;2.88;;;11.40;75.00;;;;;;5098268;28;20103;-62
2023/03/25 04:30:39;;;;;;;7.97;2.13;;;11.40;75.00;;;;;;5098230;28;20545;-62
2023/03/25 04:33:06;;;;;;;8.98;2.50;;;11.40;75.00;;;;;;5099099;28;20068;-62
2023/03/25 04:35:32;;;;;;;8.55;2.40;;;11.40;75.00;;;;;;5099243;28;20021;-62
2023/03/25 04:37:58;;;;;;;5.35;2.10;;;11.40;74.90;;;;;;5101219;28;20369;-63
2023/03/25 04:40:24;;;;;;;9.70;2.50;;;11.40;74.90;;;;;;5095690;28;20020;-62
2023/03/25 04:42:52;;;;;;;9.35;2.80;;;11.40;74.90;;;;;;5091871;28;20032;-63
2023/03/25 04:45:18;;;;;;;8.30;2.28;;;11.40;75.00;;;;;;5093168;28;20028;-62
2023/03/25 04:47:46;;;;;;;8.45;2.00;;;11.30;75.10;;;;;;5091178;28;20360;-62
2023/03/25 04:50:21;;;;;;;7.35;1.98;;;11.40;75.20;;;;;;5083928;28;20027;-62
2023/03/25 04:52:48;;;;;;;9.48;2.58;;;11.40;75.20;;;;;;5087858;28;20110;-62
2023/03/25 04:55:18;;;;;;;7.95;2.10;;;11.30;75.10;;;;;;5103823;28;20090;-62
2023/03/25 04:57:48;;;;;;;7.07;2.20;;;11.30;75.20;;;;;;5092927;28;20032;-62
2023/03/25 05:00:22;;;;;;;8.23;2.25;;;11.30;75.10;;;;;;5098200;28;20028;-62
2023/03/25 05:02:52;;;;;;;8.75;2.35;;;11.30;75.10;;;;;;5088810;28;20471;-62
2023/03/25 05:05:23;;;;;;;8.85;2.17;;;11.40;75.20;;;;;;5079578;28;20139;-62
2023/03/25 05:07:52;;;;;;;12.25;2.20;;;11.40;75.00;;;;;;5092942;28;20036;-63
2023/03/25 05:10:19;;;;;;;8.48;2.25;;;11.40;74.90;;;;;;5092780;28;20313;-62
2023/03/25 05:12:45;;;;;;;9.73;2.13;;;11.40;74.80;;;;;;5093157;28;20055;-62
2023/03/25 05:15:12;;;;;;;7.32;2.80;;;11.40;74.70;;;;;;5094746;28;20433;-62
2023/03/25 05:17:38;;;;;;;5.60;1.80;;;11.40;74.80;;;;;;5094761;28;20019;-62
2023/03/25 05:20:09;;;;;;;8.70;2.38;;;11.40;74.70;;;;;;5092208;28;20032;-62
2023/03/25 05:22:39;;;;;;;7.25;1.90;;;11.40;74.60;;;;;;5080491;28;20028;-62
2023/03/25 05:25:07;;;;;;;5.90;2.08;;;11.30;74.60;;;;;;5082168;28;20032;-63
2023/03/25 05:27:34;;;;;;;7.05;2.05;;;11.30;74.50;;;;;;5078918;28;20440;-63
2023/03/25 05:30:00;;;;;;;9.32;2.17;;;11.30;74.50;;;;;;5077730;28;20059;-63
2023/03/25 05:32:34;;;;;;;9.98;2.53;;;11.30;74.30;;;;;;5081704;28;20020;-63
2023/03/25 05:35:03;;;;;;;9.00;2.08;;;11.30;74.30;;;;;;5082251;28;20115;-63
2023/03/25 05:37:29;;;;;;;4.47;1.88;;;11.30;74.30;;;;;;5077833;28;20036;-63
2023/03/25 05:39:55;;;;;;;9.40;2.55;;;11.30;74.20;;;;;;5089886;28;20076;-63
2023/03/25 05:42:24;;;;;;;7.22;1.92;;;11.40;74.20;;;;;;5078254;28;20375;-63
2023/03/25 05:44:51;;;;;;;9.45;2.13;;;11.40;74.20;;;;;;5083462;28;20406;-63
2023/03/25 05:47:20;;;;;;;5.90;2.15;;;11.40;74.20;;;;;;5091484;28;20036;-63
2023/03/25 05:49:47;;;;;;;5.75;1.95;;;11.40;74.20;;;;;;5077364;28;20035;-63
2023/03/25 05:52:15;;;;;;;10.45;2.70;;;11.40;74.10;;;;;;5078748;28;20028;-63
2023/03/25 05:54:42;;;;;;;7.95;2.00;;;11.40;74.10;;;;;;5080681;28;20311;-63
2023/03/25 05:57:08;;;;;;;6.43;2.20;;;11.40;74.10;;;;;;5080649;28;20461;-63
2023/03/25 05:59:37;;;;;;;5.95;2.08;;;11.40;74.20;;;;;;5081375;28;20115;-63
2023/03/25 06:02:11;;;;;;;4.82;1.90;;;11.30;74.20;;;;;;5087140;28;20024;-63
2023/03/25 06:04:39;;;;;;;7.93;2.13;;;11.30;74.20;;;;;;5086011;28;20028;-63
2023/03/25 06:07:21;;;;;;;6.93;2.17;;;11.30;74.30;;;;;;5102672;28;20028;-63
2023/03/25 06:09:53;;;;;;;5.63;1.90;;;11.30;74.40;;;;;;5098084;28;20038;-62
2023/03/25 06:12:21;;;;;;;8.43;2.63;;;11.30;74.40;;;;;;5091006;28;20036;-63
2023/03/25 06:14:47;;;;;;;5.93;2.10;;;11.30;74.40;;;;;;5090635;28;20023;-63
2023/03/25 06:17:17;;;;;;;8.68;2.33;;;11.30;74.40;;;;;;5093593;28;20020;-64
2023/03/25 06:19:43;;;;;;;8.65;2.75;;;11.30;74.50;;;;;;5102756;28;20362;-64
2023/03/25 06:22:10;;;;;;;7.82;2.58;;;11.30;74.50;;;;;;5094860;28;20031;-63
2023/03/25 06:24:40;;;;;;;7.25;2.53;;;11.30;74.60;;;;;;5098930;28;20038;-64
2023/03/25 06:27:11;;;;;;;8.60;2.85;;;11.20;74.70;;;;;;5098872;28;20032;-64
2023/03/25 06:29:37;;;;;;;7.60;2.47;;;11.20;74.90;;;;;;5099061;28;20063;-64
2023/03/25 06:32:03;;;;;;;8.52;2.90;;;11.20;74.90;;;;;;5101802;28;20444;-63
2023/03/25 06:34:31;;;;;;;7.10;2.70;;;11.20;74.90;;;;;;5094141;28;20034;-63
2023/03/25 06:36:58;;;;;;;10.65;3.10;;;11.30;75.00;;;;;;5097587;28;20115;-63
2023/03/25 06:39:24;;;;;;;8.07;2.70;;;11.20;74.90;;;;;;5090519;28;20031;-63
2023/03/25 06:41:50;;;;;;;10.98;2.92;;;11.30;75.00;;;;;;5094270;28;20100;-63
2023/03/25 06:44:39;;;;;;;8.43;2.50;;;11.30;75.00;;;;;;5092720;28;20399;-64
2023/03/25 06:47:27;;;;;;;7.57;2.30;;;11.30;74.90;;;;;;5094977;28;20020;-63
2023/03/25 06:49:53;;;;;;;8.82;2.50;;;11.40;74.90;;;;;;5085502;28;20111;-63
2023/03/25 06:52:19;;;;;;;9.73;2.70;;;11.40;74.80;;;;;;5103877;28;20066;-63
2023/03/25 06:54:45;;;;;;;7.72;2.30;;;11.40;74.70;;;;;;5092461;28;20043;-63
2023/03/25 06:57:11;;;;;;;8.02;2.38;;;11.40;74.70;;;;;;5104884;28;20023;-63
2023/03/25 06:59:36;;;;;;;9.65;2.80;;;11.40;74.60;;;;;;5093977;28;20056;-64
2023/03/25 07:02:02;;;;;;;10.77;3.47;;;11.40;74.50;;;;;;5102957;28;20058;-63
2023/03/25 07:04:28;;;;;;;10.48;2.97;;;11.40;74.40;;;;;;5093896;28;20481;-63
2023/03/25 07:06:54;;;;;;;11.43;3.55;;;11.50;74.30;;;;;;5099896;28;20043;-63
2023/03/25 07:09:20;;;;;;;8.18;2.85;;;11.50;74.20;;;;;;5094857;28;20028;-64
2023/03/25 07:11:45;;;;;;;8.30;2.50;;;11.60;74.10;;;;;;5101686;28;20322;-63
2023/03/25 07:14:11;;;;;;;6.70;2.05;;;11.70;73.90;;;;;;5093824;28;20448;-64
2023/03/25 07:16:37;;;;;;;10.95;3.20;;;11.70;73.60;;;;;;5093632;28;20482;-63
2023/03/25 07:19:03;;;;;;;9.18;2.15;;;11.80;73.50;;;;;;5092995;28;20454;-64
2023/03/25 07:21:29;;;;;;;7.72;2.42;;;11.90;73.20;;;;;;5094518;28;20070;-63
2023/03/25 07:23:55;;;;;;;11.20;2.53;;;12.00;73.60;;;;;;5091807;28;20055;-64
2023/03/25 07:26:21;;;;;;;9.65;2.78;;;12.00;72.80;;;;;;5087572;28;20103;-64
2023/03/25 07:28:46;;;;;;;9.70;2.53;;;12.00;72.80;;;;;;5091331;28;20146;-64
2023/03/25 07:31:14;;;;;;;8.20;2.30;;;12.00;72.90;;;;;;5091793;28;20384;-65
2023/03/25 07:33:40;;;;;;;9.70;2.75;;;12.00;73.00;;;;;;5085828;28;20039;-64
2023/03/25 07:36:07;;;;;;;9.98;2.58;;;11.90;73.00;;;;;;5094244;28;20111;-65
2023/03/25 07:38:34;;;;;;;9.95;2.78;;;11.90;73.20;;;;;;5094508;28;20120;-64
2023/03/25 07:41:10;;;;;;;8.63;2.55;;;11.80;73.30;;;;;;5099088;28;20020;-64
2023/03/25 07:43:39;;;;;;;8.60;2.33;;;11.80;73.40;;;;;;5092389;28;20487;-64
2023/03/25 07:46:24;;;;;;;8.93;2.30;;;11.70;73.60;;;;;;5092392;28;20028;-64
2023/03/25 07:48:49;;;;;;;8.75;2.60;;;11.70;73.70;;;;;;5087391;28;20356;-64
2023/03/25 07:51:15;;;;;;;10.63;3.22;;;11.70;73.70;;;;;;5103232;28;20024;-64
2023/03/25 07:53:43;;;;;;;12.18;3.08;;;11.60;73.70;;;;;;5083866;28;20348;-64
2023/03/25 07:56:10;;;;;;;8.70;2.70;;;11.60;73.70;;;;;;5094934;28;20038;-64
2023/03/25 07:58:36;;;;;;;11.90;3.38;;;11.60;73.90;;;;;;5090685;28;20043;-64
2023/03/25 08:01:02;;;;;;;14.45;3.00;;;11.60;74.00;;;;;;5093351;28;20020;-64
2023/03/25 08:03:28;;;;;;;11.93;3.17;;;11.60;74.10;;;;;;5093239;28;20046;-64
2023/03/25 08:05:54;;;;;;;9.80;2.45;;;11.70;74.10;;;;;;5095182;28;20107;-64
2023/03/25 08:08:20;;;;;;;11.15;3.28;;;11.70;74.10;;;;;;5091623;28;20489;-63
2023/03/25 08:10:47;;;;;;;8.77;2.20;;;11.80;74.00;;;;;;5091194;28;20028;-64
2023/03/25 08:13:12;;;;;;;10.80;3.28;;;11.80;74.00;;;;;;5079432;28;20440;-64
2023/03/25 08:15:39;;;;;;;10.13;3.28;;;11.70;74.10;;;;;;5100976;28;20033;-64
2023/03/25 08:18:06;;;;;;;12.48;3.35;;;11.70;74.20;;;;;;5091358;28;20069;-64
2023/03/25 08:20:33;;;;;;;8.57;2.30;;;11.70;74.40;;;;;;5083672;28;20047;-64
2023/03/25 08:23:01;;;;;;;9.82;2.88;;;11.60;74.70;;;;;;5093366;28;20513;-65
2023/03/25 08:25:28;;;;;;;10.90;3.53;;;11.60;75.00;;;;;;5106509;28;20405;-65
2023/03/25 08:27:54;;;;;;;11.20;3.47;;;11.60;75.30;;;;;;5091521;28;20024;-65
2023/03/25 08:30:21;;;;;;;8.32;3.15;;;11.60;75.40;;;;;;5096647;28;20156;-65
2023/03/25 08:32:53;;;;;;;11.57;2.92;;;11.70;75.50;;;;;;5092524;28;20074;-65
2023/03/25 08:35:22;;;;;;;10.85;2.35;;;11.80;75.40;;;;;;5078664;28;20032;-65
2023/03/25 08:37:49;;;;;;;11.15;3.20;;;12.00;75.20;;;;;;5093077;28;20453;-65
2023/03/25 08:40:16;;;;;;;8.88;2.60;;;12.00;74.90;;;;;;5092118;28;20035;-65
2023/03/25 08:42:42;;;;;;;13.98;3.13;;;12.00;74.70;;;;;;5098716;28;20369;-65
2023/03/25 08:45:09;;;;;;;10.43;2.67;;;12.00;74.70;;;;;;5099592;28;20042;-65
2023/03/25 08:47:35;;;;;;;11.90;2.97;;;12.10;74.80;;;;;;5095391;28;20028;-65
2023/03/25 08:50:01;;;;;;;11.90;2.72;;;12.10;74.60;;;;;;5085138;28;20030;-65
2023/03/25 08:52:27;;;;;;;14.00;2.95;;;12.20;74.40;;;;;;5111194;28;20035;-65
2023/03/25 08:54:52;;;;;;;10.30;2.90;;;12.30;74.20;;;;;;5104694;28;20357;-65
2023/03/25 08:57:18;;;;;;;9.85;2.75;;;12.40;74.50;;;;;;5093717;28;20475;-65
2023/03/25 08:59:44;;;;;;;10.90;2.55;;;12.50;73.90;;;;;;5093755;28;20036;-65
2023/03/25 09:02:11;;;;;;;9.05;2.58;;;12.80;73.40;;;;;;5095579;28;20042;-65
2023/03/25 09:04:38;;;;;;;10.95;3.17;;;12.90;73.00;;;;;;5102469;28;20360;-65
2023/03/25 09:07:06;;;;;;;9.77;3.28;;;13.10;72.80;;;;;;5105488;28;20077;-65
2023/03/25 09:09:32;;;;;;;9.85;2.25;;;13.00;72.60;;;;;;5101423;28;20396;-65
2023/03/25 09:11:58;;;;;;;11.63;2.95;;;13.00;73.40;;;;;;5096065;28;20028;-65
2023/03/25 09:14:24;;;;;;;11.07;2.90;;;12.90;73.00;;;;;;5095469;28;20091;-66
2023/03/25 09:16:50;;;;;;;11.80;2.55;;;12.70;73.40;;;;;;5095725;28;20460;-66
2023/03/25 09:19:15;;;;;;;10.43;2.22;;;12.70;73.90;;;;;;5096280;28;20032;-65
2023/03/25 09:21:41;;;;;;;12.10;3.15;;;12.60;74.10;;;;;;5095152;28;20027;-65
2023/03/25 09:24:08;;;;;;;12.90;2.80;;;12.60;74.20;;;;;;5096629;28;20100;-66
2023/03/25 09:26:34;;;;;;;10.07;2.17;;;12.60;74.20;;;;;;5100594;28;20368;-65
2023/03/25 09:28:59;;;;;;;10.20;2.30;;;12.60;74.10;;;;;;5103329;28;20043;-66
2023/03/25 09:31:25;;;;;;;12.50;2.40;;;12.60;74.10;;;;;;5094513;28;20021;-66
2023/03/25 09:33:51;;;;;;;10.27;2.58;;;12.60;74.00;;;;;;5095158;28;20029;-65
2023/03/25 09:36:17;;;;;;;8.95;2.70;;;12.60;74.00;;;;;;5101813;28;20032;-65
2023/03/25 09:38:43;;;;;;;10.98;3.13;;;12.60;74.10;;;;;;5095394;28;20047;-64
2023/03/25 09:41:32;;;;;;;13.73;3.03;;;12.60;74.20;;;;;;5095124;28;20174;-64
2023/03/25 09:44:15;;;;;;;10.55;2.25;;;12.50;74.40;;;;;;5081473;28;20056;-63
2023/03/25 09:46:43;;;;;;;8.77;2.83;;;12.50;74.70;;;;;;5095095;28;20064;-64
2023/03/25 09:49:18;;;;;;;10.70;3.40;;;12.50;74.60;;;;;;5076207;28;20448;-64
2023/03/25 09:51:46;;;;;;;9.98;2.72;;;12.70;74.60;;;;;;5104617;28;20020;-64
2023/03/25 09:54:29;;;;;;;12.00;3.50;;;12.90;74.10;;;;;;5096072;28;20035;-64
2023/03/25 09:57:00;;;;;;;14.23;3.47;;;13.10;73.70;;;;;;5097467;28;20032;-64
2023/03/25 09:59:47;;;;;;;11.07;2.95;;;13.00;73.50;;;;;;5075088;28;20047;-64
2023/03/25 10:02:41;;;;;;;10.20;2.33;;;12.90;73.80;;;;;;5090516;28;20028;-64
2023/03/25 10:05:28;;;;;;;12.95;3.40;;;12.90;74.10;;;;;;5102235;28;20036;-63
2023/03/25 10:08:00;;;;;;;7.78;2.70;;;13.10;74.00;;;;;;5102335;28;20098;-63
2023/03/25 10:10:40;;;;;;;8.60;2.60;;;13.50;73.60;;;;;;5078683;28;20032;-64
2023/03/25 10:13:11;;;;;;;13.65;2.45;;;13.80;72.90;;;;;;5089845;28;20024;-64
2023/03/25 10:16:06;;;;;;;12.13;2.78;;;14.00;72.40;;;;;;5094655;28;20031;-64
2023/03/25 10:18:43;;;;;;;10.82;2.30;;;14.30;71.60;;;;;;5096505;28;20383;-64
2023/03/25 10:21:15;;;;;;;12.30;2.65;;;14.30;71.50;;;;;;5096900;28;20162;-64
2023/03/25 10:23:45;;;;;;;;;;;14.30;71.30;;;;;;5098280;28;20035;-64
2023/03/25 10:26:24;;;;;;;13.13;3.10;;;14.40;71.10;;;;;;5100396;28;19963;-64
2023/03/25 10:28:56;;;;;;;10.65;2.83;;;14.30;71.00;;;;;;5092803;28;20047;-64
2023/03/25 10:31:25;;;;;;;14.23;2.78;;;14.20;71.30;;;;;;5096493;28;20024;-64
2023/03/25 10:33:58;;;;;;;12.65;3.10;;;14.30;71.20;;;;;;5093170;28;20412;-64
2023/03/25 10:36:39;;;;;;;10.23;2.72;;;14.30;71.00;;;;;;5099636;28;20092;-63
2023/03/25 10:39:17;;;;;;;9.90;2.28;;;14.20;71.20;;;;;;5092616;28;20477;-63
2023/03/25 10:41:58;;;;;;;13.35;3.20;;;14.00;71.40;;;;;;5102297;28;20034;-64
2023/03/25 10:44:26;;;;;;;10.95;2.60;;;13.90;71.70;;;;;;5088144;28;20407;-63
2023/03/25 10:47:05;;;;;;;9.35;2.30;;;13.70;72.20;;;;;;5101706;28;20037;-64
2023/03/25 10:49:32;;;;;;;11.10;2.63;;;13.70;72.60;;;;;;5078541;28;20028;-64
2023/03/25 10:52:00;;;;;;;11.43;2.50;;;13.60;72.70;;;;;;5088229;28;20020;-63
2023/03/25 10:54:40;;;;;;;14.77;2.85;;;13.60;72.80;;;;;;5093261;28;20345;-63
2023/03/25 10:57:08;;;;;;;12.18;3.15;;;13.50;72.90;;;;;;5093049;28;20055;-63
2023/03/25 10:59:54;;;;;;;13.20;2.78;;;13.40;73.20;;;;;;5093571;28;20046;-63
2023/03/25 11:02:25;;;;;;;14.07;3.70;;;13.30;73.60;;;;;;5093595;28;20043;-64
2023/03/25 11:04:55;;;;;;;16.55;3.58;;;13.20;73.70;;;;;;5094352;28;20061;-64
2023/03/25 11:07:25;;;;;;;10.23;3.35;;;13.20;73.80;;;;;;5079403;28;20054;-63
2023/03/25 11:09:51;;;;;;;15.38;3.15;;;13.20;73.90;;;;;;5086123;28;20417;-64
2023/03/25 11:12:19;;;;;;;12.25;2.97;;;13.20;73.90;;;;;;5102426;28;20023;-64
2023/03/25 11:14:56;;;;;;;11.05;2.47;;;13.20;74.00;;;;;;5098755;28;20031;-64
2023/03/25 11:17:24;;;;;;;12.73;2.90;;;13.20;74.00;;;;;;5090441;28;20121;-64
2023/03/25 11:20:05;;;;;;;15.07;2.63;;;13.10;74.10;;;;;;5086492;28;20518;-63
2023/03/25 11:22:35;;;;;;;13.07;3.33;;;13.10;74.20;;;;;;5105805;28;20042;-64
2023/03/25 11:25:05;;;;;;;11.85;2.53;;;13.10;74.00;;;;;;5093071;28;20032;-64
2023/03/25 11:27:57;;;;;;;13.23;3.25;;;13.00;74.00;;;;;;5095322;28;20521;-64
2023/03/25 11:30:23;;;;;;;12.48;3.08;;;13.00;74.20;;;;;;5089680;28;20040;-64
2023/03/25 11:33:18;;;;;;;12.75;3.28;;;13.00;74.20;;;;;;5105557;28;20104;-64
2023/03/25 11:35:47;;;;;;;13.02;2.55;;;13.00;74.20;;;;;;5094418;28;20131;-64
2023/03/25 11:38:18;;;;;;;14.65;2.45;;;13.00;74.30;;;;;;5093408;28;20035;-64
2023/03/25 11:40:54;;;;;;;10.75;2.50;;;13.00;74.40;;;;;;5094845;28;20043;-64
2023/03/25 11:43:35;;;;;;;11.02;2.70;;;13.00;74.20;;;;;;5097895;28;20357;-64
2023/03/25 11:46:12;;;;;;;12.70;2.40;;;13.20;74.20;;;;;;5091668;28;20085;-64
2023/03/25 11:48:40;;;;;;;11.63;2.33;;;13.30;73.80;;;;;;5089035;28;20089;-63
2023/03/25 11:51:14;;;;;;;7.75;2.20;;;13.30;73.40;;;;;;5093202;28;20102;-64
2023/03/25 11:53:45;;;;;;;12.07;2.47;;;13.40;72.90;;;;;;5091983;28;20020;-64
2023/03/25 11:56:19;;;;;;;12.30;3.08;;;13.40;72.40;;;;;;5085281;28;20085;-64
2023/03/25 11:58:46;;;;;;;10.35;1.85;;;13.50;71.90;;;;;;5094158;28;20020;-63
2023/03/25 12:01:28;;;;;;;11.68;2.05;;;13.60;71.60;;;;;;5093117;28;20043;-63
2023/03/25 12:04:18;;;;;;;10.80;2.08;;;13.70;71.70;;;;;;5087253;28;20040;-63
2023/03/25 12:06:56;;;;;;;9.40;1.98;;;13.80;70.90;;;;;;5092764;28;20043;-64
2023/03/25 12:09:23;;;;;;;10.23;1.95;;;13.90;70.50;;;;;;5094266;28;20024;-64
2023/03/25 12:12:15;;;;;;;6.18;1.50;;;13.90;70.40;;;;;;5094631;28;20452;-63
2023/03/25 12:15:16;;;;;;;8.27;1.88;;;13.90;70.00;;;;;;5083805;28;20115;-63
2023/03/25 12:17:59;;;;;;;10.07;2.10;;;13.90;69.60;;;;;;5086089;28;20044;-65
2023/03/25 12:20:47;;;;;;;9.15;1.73;;;13.90;69.60;;;;;;5079104;28;20028;-63
2023/03/25 12:23:36;;;;;;;11.07;1.92;;;14.00;69.40;;;;;;5098178;28;20028;-63
2023/03/25 12:26:47;;;;;;;9.10;2.00;;;14.00;69.10;;;;;;5094852;28;20484;-64
2023/03/25 12:29:30;;;;;;;10.85;2.13;;;14.00;69.00;;;;;;5097309;28;20067;-63
2023/03/25 12:32:00;;;;;;;11.48;2.45;;;14.10;68.90;;;;;;5105892;28;20069;-63
2023/03/25 12:34:55;;;;;;;9.98;2.47;;;14.10;68.80;;;;;;5089869;28;20514;-63
2023/03/25 12:37:46;;;;;;;11.23;1.90;;;14.10;68.60;;;;;;5091188;28;20046;-63
2023/03/25 12:40:30;;;;;;;9.20;1.75;;;14.10;68.70;;;;;;5096193;28;20035;-63
2023/03/25 12:43:04;;;;;;;10.00;2.13;;;14.10;68.60;;;;;;5109838;28;20023;-64
2023/03/25 12:45:36;;;;;;;7.18;1.85;;;14.20;68.10;;;;;;5085011;28;20081;-67
2023/03/25 12:48:15;;;;;;;11.50;2.25;;;14.20;67.70;;;;;;5097807;28;20136;-63
2023/03/25 12:50:48;;;;;;;10.40;2.15;;;14.20;67.00;;;;;;5098069;28;20027;-64
2023/03/25 12:53:16;;;;;;;7.25;1.73;;;14.00;67.40;;;;;;5098369;28;20270;-64
2023/03/25 12:55:59;;;;;;;8.65;2.20;;;13.90;68.20;;;;;;5093536;28;20059;-64
2023/03/25 12:58:43;;;;;;;8.07;1.52;;;13.60;69.00;;;;;;5094324;28;20024;-65
2023/03/25 13:01:27;;;;;;;7.35;2.00;;;13.30;69.90;;;;;;5094815;28;20031;-63
2023/03/25 13:04:04;;;;;;;7.70;1.35;;;13.10;70.60;;;;;;5096036;28;20028;-64
2023/03/25 13:06:39;;;;;;;6.82;1.35;;;12.70;71.20;;;;;;5097033;28;20040;-64
2023/03/25 13:09:29;;;;;;;5.15;1.15;;;12.50;71.90;;;;;;5095721;28;20379;-63